หน้าหลัก
METAR-TAF:

METAR-TAF

ท่าอากาศยาน :

Changchun, จีน

ละติจูด: 43-54N, ลองจิจูด: 125-13E, ความสูง: 238 ม.

การสังเกตสภาพอากาศปัจจุบัน

รายงานได้ทำขึ้นเมื่อ 44 นาทีที่แล้ว ณ เวลา 12:00 UTC
ลม 8 นอตจากใต้/ตะวันตกเฉียงใต้
อุณหภูมิ 19°C
ความชื้น 73%
ความกดอากาศ 1012 hPa
ทัศนวิสัย 10 กม. หรือมากกว่า
ไม่มีเมฆต่ำกว่า 1,500 ม. และไม่มีเมฆคิวมูโลนิมบัส

METAR: ZYCC 261200Z 20004MPS CAVOK 19/14 Q1012 NOSIG

เวลา: 20:44 (12:44 UTC)

การพยากรณ์

รายงานได้ทำขึ้นเมื่อ 3 ชั่วโมงและ 31 นาทีที่แล้ว ณ เวลา 09:13 UTC
การพยากรณ์มีผลตั้งแต่วันที่ 26 ณ เวลา 12 UTC จนถึงวันที่ 27 ณ เวลา 12 UTC
ลม 8 นอตจากตะวันตกเฉียงใต้
ทัศนวิสัย: 6000 ม.
มีเมฆน้อยที่ความสูง 3000 ฟุต

TAF: ZYCC 260913Z 2612/2712 22004MPS 6000 FEW030 TX23/2706Z TN14/2620Z

สังเกตการณ์สภาพอากาศและพยากรณ์อากาศของสนามบินมากกว่า 4000 แห่ง (รายงาน METAR และ TAF).

สถานีที่ดูได้จะแสดงไว้ด้วยจุดสีเหลืองและสีแดงบนแผนที่.

เลื่อนเมาส์ไปเหนือจุดเพื่อดูชื่อสถานี.

แล้วคลิกเพื่อดูสังเกตการณ์และการพยากรณ์สภาพอากาศ.

ในการเปลี่ยนแผนที่: คลิกที่ปุ่มสีเขียวที่มีกากบาทสีดำเพื่อซูมเข้า; ที่ปุ่มสีเขียวที่มีขีดเพื่อซูมออก; หรือที่ลูกศรสีเขียวเพื่อไปยังแผนที่ที่อยู่ติดกัน.


METAR-TAF: